Time;durP1;ratioP1;P1;durP2;ratioP2;P2;SDS_P1;SDS_P2;PMS_P1;PMS_P2;Temp;Humidity;BMP_temperature;BMP_pressure;BME280_temperature;BME280_humidity;BME280_pressure;Samples;Min_cycle;Max_cycle;Signal;HPM_P1;HPM_P2
2021/04/28 00:00:25;;;;;;;30.38;23.10;;;;;;;;;;4818629;29;20394;-71
2021/04/28 00:06:08;;;;;;;37.90;29.52;;;;;;;;;;4787730;23;20062;-71
2021/04/28 00:08:35;;;;;;;50.58;37.50;;;;;;;;;;4843306;29;20026;-71
2021/04/28 00:11:01;;;;;;;43.13;33.08;;;;;;;;;;4843184;29;20068;-71
2021/04/28 00:13:27;;;;;;;33.67;28.00;;;;;;;;;;4836628;29;20033;-71
2021/04/28 00:15:53;;;;;;;34.55;27.15;;;;;;;;;;4843653;29;20481;-71
2021/04/28 00:18:19;;;;;;;42.40;33.13;;;;;;;;;;4843983;29;20036;-71
2021/04/28 00:20:46;;;;;;;41.83;31.95;;;;;;;;;;4826212;29;20034;-71
2021/04/28 00:23:12;;;;;;;35.78;27.88;;;;;;;;;;4844809;29;20021;-71
2021/04/28 00:25:39;;;;;;;38.00;29.00;;;;;;;;;;4843359;29;20037;-71
2021/04/28 00:28:05;;;;;;;31.30;25.08;;;;;;;;;;4827552;29;20105;-71
2021/04/28 00:30:31;;;;;;;30.27;24.83;;;;;;;;;;4844035;29;20103;-71
2021/04/28 00:32:58;;;;;;;31.80;26.58;;;;;;;;;;4844423;29;20026;-71
2021/04/28 00:35:24;;;;;;;32.90;26.38;;;;;;;;;;4827427;29;20095;-71
2021/04/28 00:37:51;;;;;;;35.58;28.02;;;;;;;;;;4833805;29;20034;-71
2021/04/28 00:40:19;;;;;;;35.83;28.08;;;;;;;;;;4824956;29;20034;-71
2021/04/28 00:42:46;;;;;;;31.73;26.60;;;;;;;;;;4843880;29;20034;-71
2021/04/28 00:45:13;;;;;;;34.17;26.95;;;;;;;;;;4842888;29;20497;-71
2021/04/28 00:47:39;;;;;;;34.00;27.40;;;;;;;;;;4848180;29;20477;-71
2021/04/28 00:50:06;;;;;;;34.80;28.83;;;;;;;;;;4850679;29;20445;-72
2021/04/28 00:52:32;;;;;;;32.15;28.02;;;;;;;;;;4815023;29;20388;-71
2021/04/28 00:54:59;;;;;;;36.63;29.38;;;;;;;;;;4843807;29;20021;-71
2021/04/28 00:57:25;;;;;;;40.05;30.08;;;;;;;;;;4844220;29;20029;-71
2021/04/28 00:59:51;;;;;;;35.83;29.50;;;;;;;;;;4844137;29;20037;-71
2021/04/28 01:02:17;;;;;;;37.47;29.98;;;;;;;;;;4843180;29;20079;-71
2021/04/28 01:04:46;;;;;;;35.30;28.75;;;;;;;;;;4838149;29;20072;-72
2021/04/28 01:07:12;;;;;;;39.10;32.33;;;;;;;;;;4825572;29;20066;-71
2021/04/28 01:09:39;;;;;;;41.70;32.72;;;;;;;;;;4822780;29;20058;-71
2021/04/28 01:12:06;;;;;;;38.03;30.55;;;;;;;;;;4825380;29;20109;-71
2021/04/28 01:14:33;;;;;;;38.17;32.55;;;;;;;;;;4822133;29;20038;-72
2021/04/28 01:17:01;;;;;;;43.10;33.45;;;;;;;;;;4824999;29;20077;-71
2021/04/28 01:19:28;;;;;;;39.65;32.15;;;;;;;;;;4824148;29;20447;-72
2021/04/28 01:21:55;;;;;;;44.92;35.40;;;;;;;;;;4824814;29;20030;-71
2021/04/28 01:24:21;;;;;;;40.20;33.85;;;;;;;;;;4824467;29;20394;-71
2021/04/28 01:26:50;;;;;;;40.35;32.97;;;;;;;;;;4819922;29;20066;-71
2021/04/28 01:29:17;;;;;;;40.60;32.92;;;;;;;;;;4819547;29;20140;-71
2021/04/28 01:31:43;;;;;;;37.97;31.40;;;;;;;;;;4820722;29;20473;-72
2021/04/28 01:34:09;;;;;;;31.92;28.10;;;;;;;;;;4820044;29;20045;-72
2021/04/28 01:36:38;;;;;;;36.55;29.60;;;;;;;;;;4823667;29;20030;-71
2021/04/28 01:39:06;;;;;;;37.85;32.80;;;;;;;;;;4823062;29;20118;-71
2021/04/28 01:41:36;;;;;;;35.15;28.25;;;;;;;;;;4823626;29;20096;-72
2021/04/28 01:44:02;;;;;;;34.05;27.48;;;;;;;;;;4824669;29;20031;-72
2021/04/28 01:46:29;;;;;;;36.38;28.27;;;;;;;;;;4823709;29;20068;-72
2021/04/28 01:48:55;;;;;;;30.85;26.33;;;;;;;;;;4822958;29;20031;-71
2021/04/28 01:51:21;;;;;;;30.92;25.77;;;;;;;;;;4824511;29;20034;-71
2021/04/28 01:53:48;;;;;;;30.23;24.25;;;;;;;;;;4821893;29;20083;-71
2021/04/28 01:56:14;;;;;;;30.10;23.55;;;;;;;;;;4805465;29;20112;-71
2021/04/28 01:58:42;;;;;;;30.15;22.95;;;;;;;;;;4807993;29;20034;-72
2021/04/28 02:01:09;;;;;;;26.20;22.15;;;;;;;;;;4822104;29;20038;-72
2021/04/28 02:03:35;;;;;;;28.02;21.73;;;;;;;;;;4807283;29;20018;-71
2021/04/28 02:06:02;;;;;;;23.88;20.73;;;;;;;;;;4823523;29;20058;-71
2021/04/28 02:08:28;;;;;;;25.33;20.85;;;;;;;;;;4824510;29;20482;-72
2021/04/28 02:10:54;;;;;;;28.95;21.90;;;;;;;;;;4824518;29;20081;-71
2021/04/28 02:13:22;;;;;;;25.63;21.77;;;;;;;;;;4821267;29;20031;-71
2021/04/28 02:15:49;;;;;;;28.52;24.00;;;;;;;;;;4823705;29;20038;-71
2021/04/28 02:18:15;;;;;;;29.15;24.92;;;;;;;;;;4823621;29;20111;-71
2021/04/28 02:20:41;;;;;;;28.10;23.70;;;;;;;;;;4822112;29;20096;-71
2021/04/28 02:23:08;;;;;;;31.10;26.17;;;;;;;;;;4806558;29;20408;-71
2021/04/28 02:25:34;;;;;;;30.63;24.40;;;;;;;;;;4823014;29;20042;-71
2021/04/28 02:28:00;;;;;;;32.10;26.27;;;;;;;;;;4822549;29;20574;-72
2021/04/28 02:30:28;;;;;;;34.17;27.38;;;;;;;;;;4807524;29;20065;-71
2021/04/28 02:32:57;;;;;;;31.35;25.77;;;;;;;;;;4824130;29;20445;-71
2021/04/28 02:35:26;;;;;;;30.70;24.48;;;;;;;;;;4821515;29;20456;-71
2021/04/28 02:38:00;;;;;;;32.97;26.23;;;;;;;;;;4823874;29;20121;-71
2021/04/28 02:40:26;;;;;;;35.63;25.05;;;;;;;;;;4822834;29;20465;-72
2021/04/28 02:42:53;;;;;;;32.83;26.20;;;;;;;;;;4814420;29;20038;-71
2021/04/28 02:45:21;;;;;;;33.00;26.27;;;;;;;;;;4822602;29;20046;-71
2021/04/28 02:47:48;;;;;;;31.98;26.50;;;;;;;;;;4824016;29;20023;-71
2021/04/28 02:50:17;;;;;;;33.42;25.33;;;;;;;;;;4823109;29;20042;-71
2021/04/28 02:52:43;;;;;;;29.10;23.52;;;;;;;;;;4822491;29;20434;-71
2021/04/28 02:55:11;;;;;;;32.00;25.90;;;;;;;;;;4822952;29;20038;-71
2021/04/28 02:57:37;;;;;;;35.95;27.95;;;;;;;;;;4824673;29;20109;-72
2021/04/28 03:00:06;;;;;;;33.22;28.05;;;;;;;;;;4823088;29;20378;-71
2021/04/28 03:02:33;;;;;;;36.22;27.70;;;;;;;;;;4820199;29;20030;-72
2021/04/28 03:05:00;;;;;;;35.45;28.02;;;;;;;;;;4817878;29;20061;-71
2021/04/28 03:07:26;;;;;;;35.22;27.77;;;;;;;;;;4832311;29;20536;-71
2021/04/28 03:09:52;;;;;;;37.78;28.85;;;;;;;;;;4823613;29;20030;-71
2021/04/28 03:12:18;;;;;;;36.30;29.50;;;;;;;;;;4823978;29;20034;-71
2021/04/28 03:14:46;;;;;;;34.33;28.40;;;;;;;;;;4819646;29;20045;-71
2021/04/28 03:17:12;;;;;;;33.92;27.55;;;;;;;;;;4812128;29;20401;-71
2021/04/28 03:19:38;;;;;;;28.13;23.23;;;;;;;;;;4817477;29;20027;-71
2021/04/28 03:22:05;;;;;;;33.20;25.77;;;;;;;;;;4823496;29;20038;-71
2021/04/28 03:24:31;;;;;;;28.25;23.88;;;;;;;;;;4822359;29;20045;-72
2021/04/28 03:27:08;;;;;;;32.08;26.20;;;;;;;;;;4815086;29;20045;-71
2021/04/28 03:29:34;;;;;;;30.60;25.17;;;;;;;;;;4819853;29;20061;-72
2021/04/28 03:32:01;;;;;;;30.38;23.48;;;;;;;;;;4817813;29;20087;-70
2021/04/28 03:34:27;;;;;;;33.45;25.23;;;;;;;;;;4818195;29;20041;-71
2021/04/28 03:36:53;;;;;;;35.50;27.52;;;;;;;;;;4823579;29;20118;-71
2021/04/28 03:39:19;;;;;;;37.85;29.08;;;;;;;;;;4809219;29;20578;-70
2021/04/28 03:41:45;;;;;;;40.78;27.80;;;;;;;;;;4818377;29;20027;-71
2021/04/28 03:44:11;;;;;;;31.35;25.88;;;;;;;;;;4822142;29;20038;-70
2021/04/28 03:46:38;;;;;;;32.95;24.25;;;;;;;;;;4821757;29;20038;-71
2021/04/28 03:49:04;;;;;;;28.33;23.02;;;;;;;;;;4822445;29;20036;-71
2021/04/28 03:51:30;;;;;;;29.42;23.65;;;;;;;;;;4821354;29;20034;-70
2021/04/28 03:53:57;;;;;;;35.17;27.25;;;;;;;;;;4801680;29;20035;-70
2021/04/28 03:56:26;;;;;;;33.03;27.23;;;;;;;;;;4822587;29;20121;-70
2021/04/28 03:58:52;;;;;;;38.85;30.05;;;;;;;;;;4814682;29;20113;-70
2021/04/28 04:01:19;;;;;;;39.58;30.27;;;;;;;;;;4813367;29;20035;-70
2021/04/28 04:03:45;;;;;;;39.85;31.27;;;;;;;;;;4821370;29;20046;-71
2021/04/28 04:06:11;;;;;;;38.58;30.52;;;;;;;;;;4821785;29;20183;-70
2021/04/28 04:08:37;;;;;;;36.65;28.83;;;;;;;;;;4819420;29;20031;-71
2021/04/28 04:11:03;;;;;;;38.90;28.92;;;;;;;;;;4822330;29;20478;-70
2021/04/28 04:13:30;;;;;;;37.17;29.65;;;;;;;;;;4822263;29;20037;-71
2021/04/28 04:15:56;;;;;;;30.60;26.20;;;;;;;;;;4820969;29;20462;-71
2021/04/28 04:18:22;;;;;;;35.83;28.15;;;;;;;;;;4820690;29;20034;-71
2021/04/28 04:20:48;;;;;;;34.45;28.30;;;;;;;;;;4821772;29;20062;-71
2021/04/28 04:23:14;;;;;;;31.73;25.77;;;;;;;;;;4827992;29;20521;-71
2021/04/28 04:25:40;;;;;;;32.95;26.70;;;;;;;;;;4827686;29;20525;-70
2021/04/28 04:28:06;;;;;;;33.15;25.10;;;;;;;;;;4821003;29;20042;-71
2021/04/28 04:30:32;;;;;;;35.42;27.25;;;;;;;;;;4821976;29;20164;-71
2021/04/28 04:32:58;;;;;;;34.33;26.60;;;;;;;;;;4817849;29;20035;-71
2021/04/28 04:35:24;;;;;;;34.67;27.33;;;;;;;;;;4819550;29;20038;-72
2021/04/28 04:37:51;;;;;;;31.27;25.60;;;;;;;;;;4822077;29;20034;-70
2021/04/28 04:40:17;;;;;;;30.98;24.75;;;;;;;;;;4821866;29;20038;-70
2021/04/28 04:42:43;;;;;;;30.08;24.38;;;;;;;;;;4820836;29;20057;-71
2021/04/28 04:45:10;;;;;;;29.08;23.85;;;;;;;;;;4821753;29;20906;-71
2021/04/28 04:47:36;;;;;;;34.05;24.23;;;;;;;;;;4818530;29;20030;-70
2021/04/28 04:50:04;;;;;;;34.15;25.45;;;;;;;;;;4821676;29;20030;-71
2021/04/28 04:52:30;;;;;;;28.80;24.15;;;;;;;;;;4807859;29;20057;-71
2021/04/28 04:54:56;;;;;;;34.40;24.88;;;;;;;;;;4820808;29;20106;-71
2021/04/28 04:57:22;;;;;;;31.70;24.70;;;;;;;;;;4824660;29;20037;-70
2021/04/28 04:59:48;;;;;;;36.10;25.08;;;;;;;;;;4823929;29;20029;-71
2021/04/28 05:02:14;;;;;;;30.98;23.55;;;;;;;;;;4820651;29;20034;-71
2021/04/28 05:04:41;;;;;;;31.92;23.75;;;;;;;;;;4820884;29;20131;-71
2021/04/28 05:07:07;;;;;;;31.60;23.70;;;;;;;;;;4823880;29;20380;-75
2021/04/28 05:09:33;;;;;;;33.15;23.35;;;;;;;;;;4838534;29;20033;-78
2021/04/28 05:11:59;;;;;;;32.50;23.90;;;;;;;;;;4832427;29;20046;-74
2021/04/28 05:14:29;;;;;;;39.22;24.92;;;;;;;;;;4838092;29;20027;-77
2021/04/28 05:16:55;;;;;;;27.50;22.25;;;;;;;;;;4830539;29;20053;-70
2021/04/28 05:19:21;;;;;;;28.42;23.08;;;;;;;;;;4824105;29;20524;-71
2021/04/28 05:21:47;;;;;;;29.00;22.80;;;;;;;;;;4823392;29;20057;-72
2021/04/28 05:24:13;;;;;;;39.28;24.67;;;;;;;;;;4824883;29;20034;-70
2021/04/28 05:26:39;;;;;;;28.60;23.02;;;;;;;;;;4828531;29;20445;-70
2021/04/28 05:29:05;;;;;;;30.15;23.88;;;;;;;;;;4824690;29;20098;-71
2021/04/28 05:31:32;;;;;;;39.13;24.95;;;;;;;;;;4824435;29;20477;-71
2021/04/28 05:33:58;;;;;;;35.28;26.63;;;;;;;;;;4825466;29;20046;-72
2021/04/28 05:36:27;;;;;;;37.08;26.40;;;;;;;;;;4825468;29;20034;-70
2021/04/28 05:38:58;;;;;;;32.78;26.20;;;;;;;;;;4826182;29;20504;-69
2021/04/28 05:41:24;;;;;;;36.72;26.27;;;;;;;;;;4823997;29;20026;-72
2021/04/28 05:43:50;;;;;;;33.20;25.40;;;;;;;;;;4822107;29;20033;-69
2021/04/28 05:46:16;;;;;;;42.50;26.92;;;;;;;;;;4824498;29;20049;-69
2021/04/28 05:48:42;;;;;;;33.30;25.70;;;;;;;;;;4822823;29;20385;-70
2021/04/28 05:51:08;;;;;;;36.50;25.92;;;;;;;;;;4822106;29;20034;-70
2021/04/28 05:53:34;;;;;;;34.42;27.08;;;;;;;;;;4830333;29;20030;-70
2021/04/28 05:56:07;;;;;;;34.70;27.73;;;;;;;;;;4821668;29;20038;-72
2021/04/28 05:58:34;;;;;;;30.95;25.70;;;;;;;;;;4818896;29;20042;-69
2021/04/28 06:01:04;;;;;;;34.97;27.17;;;;;;;;;;4825292;29;20113;-73
2021/04/28 06:03:30;;;;;;;37.30;29.48;;;;;;;;;;4825898;29;20026;-72
2021/04/28 06:05:56;;;;;;;34.90;27.30;;;;;;;;;;4827145;29;20108;-72
2021/04/28 06:08:22;;;;;;;31.58;26.80;;;;;;;;;;4826608;29;20366;-70
2021/04/28 06:10:48;;;;;;;33.35;27.85;;;;;;;;;;4823000;29;20038;-69
2021/04/28 06:13:14;;;;;;;35.88;27.65;;;;;;;;;;4828062;29;20038;-67
2021/04/28 06:15:40;;;;;;;37.85;26.60;;;;;;;;;;4821028;29;20064;-69
2021/04/28 06:18:07;;;;;;;32.78;26.55;;;;;;;;;;4819779;29;20489;-69
2021/04/28 06:20:33;;;;;;;43.47;28.08;;;;;;;;;;4815657;29;20030;-69
2021/04/28 06:23:07;;;;;;;37.00;26.58;;;;;;;;;;4823009;29;20065;-68
2021/04/28 06:25:33;;;;;;;30.77;24.58;;;;;;;;;;4824829;29;20038;-74
2021/04/28 06:27:59;;;;;;;36.78;25.80;;;;;;;;;;4826473;29;20056;-74
2021/04/28 06:30:25;;;;;;;40.13;28.30;;;;;;;;;;4806501;29;20047;-68
2021/04/28 06:32:51;;;;;;;32.60;26.52;;;;;;;;;;4806162;29;20047;-69
2021/04/28 06:35:18;;;;;;;38.70;27.75;;;;;;;;;;4806921;29;20528;-70
2021/04/28 06:37:44;;;;;;;36.50;27.10;;;;;;;;;;4822817;29;20034;-73
2021/04/28 06:40:11;;;;;;;37.47;27.77;;;;;;;;;;4824750;29;20100;-72
2021/04/28 06:42:37;;;;;;;32.35;25.25;;;;;;;;;;4806947;29;20405;-70
2021/04/28 06:45:04;;;;;;;34.53;26.17;;;;;;;;;;4827551;29;20039;-75
2021/04/28 06:47:30;;;;;;;33.08;26.15;;;;;;;;;;4825747;29;20035;-75
2021/04/28 06:49:56;;;;;;;34.55;27.13;;;;;;;;;;4825679;29;20504;-73
2021/04/28 06:52:25;;;;;;;37.20;26.70;;;;;;;;;;4829344;29;20035;-76
2021/04/28 06:54:51;;;;;;;37.78;26.38;;;;;;;;;;4829786;29;20110;-75
2021/04/28 06:57:17;;;;;;;37.55;27.58;;;;;;;;;;4831302;29;20058;-71
2021/04/28 06:59:43;;;;;;;34.15;27.13;;;;;;;;;;4827244;29;20567;-75
2021/04/28 07:02:10;;;;;;;36.47;27.95;;;;;;;;;;4821966;29;20538;-71
2021/04/28 07:04:36;;;;;;;34.00;27.42;;;;;;;;;;4827239;29;20050;-75
2021/04/28 07:07:02;;;;;;;36.70;28.25;;;;;;;;;;4822800;29;20042;-70
2021/04/28 07:09:28;;;;;;;39.38;28.67;;;;;;;;;;4819314;29;20033;-70
2021/04/28 07:11:54;;;;;;;41.33;30.13;;;;;;;;;;4822299;29;20484;-72
2021/04/28 07:14:20;;;;;;;40.58;29.27;;;;;;;;;;4823304;29;20088;-72
2021/04/28 07:16:46;;;;;;;38.00;28.60;;;;;;;;;;4821919;29;20030;-71
2021/04/28 07:19:12;;;;;;;40.30;28.58;;;;;;;;;;4807364;29;20598;-73
2021/04/28 07:21:38;;;;;;;36.45;27.92;;;;;;;;;;4815453;29;20030;-70
2021/04/28 07:24:07;;;;;;;41.67;30.75;;;;;;;;;;4822116;29;20030;-72
2021/04/28 07:26:35;;;;;;;39.65;29.52;;;;;;;;;;4823546;29;20046;-71
2021/04/28 07:29:02;;;;;;;38.92;30.50;;;;;;;;;;4828864;29;20090;-78
2021/04/28 07:31:29;;;;;;;39.40;30.25;;;;;;;;;;4825808;29;20124;-72
2021/04/28 07:33:57;;;;;;;39.55;29.75;;;;;;;;;;4821193;29;20319;-72
2021/04/28 07:36:24;;;;;;;39.50;31.35;;;;;;;;;;4821006;29;20034;-74
2021/04/28 07:38:50;;;;;;;40.00;32.08;;;;;;;;;;4818353;29;20042;-73
2021/04/28 07:41:16;;;;;;;39.28;29.80;;;;;;;;;;4828909;29;20109;-74
2021/04/28 07:43:42;;;;;;;43.40;31.85;;;;;;;;;;4813923;29;20031;-74
2021/04/28 07:46:08;;;;;;;45.60;33.50;;;;;;;;;;4802502;29;20501;-74
2021/04/28 07:48:34;;;;;;;45.38;32.30;;;;;;;;;;4821856;29;20448;-75
2021/04/28 07:51:01;;;;;;;44.78;33.50;;;;;;;;;;4805325;29;20080;-74
2021/04/28 07:53:29;;;;;;;47.65;33.97;;;;;;;;;;4818176;29;20137;-74
2021/04/28 07:55:56;;;;;;;48.25;34.22;;;;;;;;;;4819547;29;20050;-73
2021/04/28 07:58:22;;;;;;;49.00;35.33;;;;;;;;;;4823111;29;20079;-75
2021/04/28 08:00:48;;;;;;;49.35;36.40;;;;;;;;;;4822255;29;20497;-70
2021/04/28 08:03:14;;;;;;;46.53;34.88;;;;;;;;;;4825784;29;20381;-73
2021/04/28 08:05:40;;;;;;;49.28;35.15;;;;;;;;;;4822641;29;20058;-73
2021/04/28 08:08:06;;;;;;;54.42;37.85;;;;;;;;;;4822972;29;20031;-73
2021/04/28 08:10:33;;;;;;;51.58;37.15;;;;;;;;;;4821820;29;20049;-72
2021/04/28 08:12:59;;;;;;;52.55;37.90;;;;;;;;;;4821006;29;20029;-73
2021/04/28 08:15:26;;;;;;;47.53;36.38;;;;;;;;;;4821833;29;20038;-74
2021/04/28 08:17:52;;;;;;;52.22;38.63;;;;;;;;;;4822105;29;20030;-73
2021/04/28 08:20:18;;;;;;;51.00;37.60;;;;;;;;;;4823732;29;20037;-77
2021/04/28 08:22:44;;;;;;;53.17;36.92;;;;;;;;;;4826849;29;20031;-77
2021/04/28 08:25:12;;;;;;;47.35;37.47;;;;;;;;;;4824771;29;20038;-73
2021/04/28 08:27:38;;;;;;;51.90;38.50;;;;;;;;;;4827962;29;20370;-77
2021/04/28 08:30:05;;;;;;;55.83;38.58;;;;;;;;;;4830371;29;20038;-76
2021/04/28 08:32:31;;;;;;;48.95;37.65;;;;;;;;;;4829773;29;20035;-76
2021/04/28 08:34:57;;;;;;;51.22;38.88;;;;;;;;;;4826400;29;20039;-74
2021/04/28 08:37:24;;;;;;;52.80;37.45;;;;;;;;;;4827452;29;20030;-77
2021/04/28 08:39:50;;;;;;;50.58;36.90;;;;;;;;;;4830763;29;20061;-77
2021/04/28 08:42:17;;;;;;;50.63;37.45;;;;;;;;;;4834178;29;20022;-76
2021/04/28 08:44:43;;;;;;;53.45;39.47;;;;;;;;;;4841700;29;20038;-75
2021/04/28 08:47:09;;;;;;;57.92;42.17;;;;;;;;;;4823130;29;20027;-75
2021/04/28 08:49:37;;;;;;;61.95;43.35;;;;;;;;;;4822189;29;20075;-73
2021/04/28 08:52:04;;;;;;;64.53;43.90;;;;;;;;;;4824491;29;20034;-75
2021/04/28 08:54:32;;;;;;;63.25;44.83;;;;;;;;;;4823977;29;20075;-74
2021/04/28 08:56:58;;;;;;;66.63;45.40;;;;;;;;;;4800555;29;20034;-73
2021/04/28 08:59:25;;;;;;;65.40;46.20;;;;;;;;;;4822702;29;20087;-72
2021/04/28 09:01:51;;;;;;;82.32;54.25;;;;;;;;;;4825010;29;20122;-72
2021/04/28 09:04:23;;;;;;;74.88;52.40;;;;;;;;;;4823158;29;20524;-72
2021/04/28 09:06:51;;;;;;;84.75;56.95;;;;;;;;;;4824141;29;20138;-72
2021/04/28 09:09:17;;;;;;;98.80;63.00;;;;;;;;;;4825021;29;20081;-73
2021/04/28 09:11:44;;;;;;;97.60;60.03;;;;;;;;;;4825703;29;20032;-75
2021/04/28 09:14:14;;;;;;;90.07;61.10;;;;;;;;;;4824631;29;20033;-73
2021/04/28 09:16:44;;;;;;;91.28;60.50;;;;;;;;;;4824837;29;20026;-76
2021/04/28 09:19:51;;;;;;;86.38;59.03;;;;;;;;;;4823556;29;20038;-73
2021/04/28 09:22:20;;;;;;;83.63;56.90;;;;;;;;;;4719978;30;20040;-74
2021/04/28 09:24:56;;;;;;;97.30;57.47;;;;;;;;;;4734497;30;20088;-74
2021/04/28 09:27:30;;;;;;;77.85;52.58;;;;;;;;;;4744790;30;20120;-72
2021/04/28 09:29:57;;;;;;;61.35;42.35;;;;;;;;;;4745485;30;20411;-75
2021/04/28 09:32:32;;;;;;;49.83;36.40;;;;;;;;;;4731690;30;20044;-75
2021/04/28 09:35:17;;;;;;;47.72;34.30;;;;;;;;;;4731807;30;20040;-74
2021/04/28 09:37:50;;;;;;;44.15;33.55;;;;;;;;;;4731017;30;20075;-77
2021/04/28 09:40:16;;;;;;;42.28;31.30;;;;;;;;;;4735886;30;20519;-76
2021/04/28 09:42:53;;;;;;;49.75;33.35;;;;;;;;;;4732151;30;20105;-75
2021/04/28 09:45:37;;;;;;;49.38;32.80;;;;;;;;;;4734540;30;20049;-75
2021/04/28 09:48:04;;;;;;;46.75;31.02;;;;;;;;;;4734288;30;20053;-75
2021/04/28 09:50:30;;;;;;;40.67;29.52;;;;;;;;;;4732900;30;20457;-72
2021/04/28 09:52:57;;;;;;;38.08;28.85;;;;;;;;;;4732352;30;20052;-71
2021/04/28 09:55:23;;;;;;;42.33;29.15;;;;;;;;;;4731105;30;20373;-71
2021/04/28 09:57:52;;;;;;;46.03;29.50;;;;;;;;;;4778831;29;20047;-71
2021/04/28 10:00:21;;;;;;;43.58;29.10;;;;;;;;;;4823794;29;20031;-70
2021/04/28 10:02:57;;;;;;;36.45;27.98;;;;;;;;;;4822959;29;20034;-72
2021/04/28 10:05:25;;;;;;;37.42;27.77;;;;;;;;;;4819863;29;20532;-75
2021/04/28 10:07:53;;;;;;;37.67;27.80;;;;;;;;;;4822518;29;20037;-74
2021/04/28 10:10:19;;;;;;;36.95;26.60;;;;;;;;;;4823568;29;20761;-75
2021/04/28 10:12:46;;;;;;;31.08;25.80;;;;;;;;;;4824464;29;20476;-73
2021/04/28 10:15:12;;;;;;;32.78;26.83;;;;;;;;;;4822244;29;20033;-72
2021/04/28 10:17:39;;;;;;;32.33;26.20;;;;;;;;;;4827267;29;20039;-76
2021/04/28 10:20:06;;;;;;;30.75;25.90;;;;;;;;;;4826437;29;20029;-76
2021/04/28 10:22:32;;;;;;;31.95;25.02;;;;;;;;;;4826195;29;20030;-77
2021/04/28 10:25:03;;;;;;;26.70;22.85;;;;;;;;;;4824773;29;20044;-73
2021/04/28 10:27:29;;;;;;;27.70;23.38;;;;;;;;;;4822204;29;20030;-73
2021/04/28 10:29:56;;;;;;;22.58;19.85;;;;;;;;;;4824486;29;20034;-74
2021/04/28 10:32:23;;;;;;;23.02;20.63;;;;;;;;;;4820956;29;20030;-76
2021/04/28 10:34:53;;;;;;;23.02;19.05;;;;;;;;;;4823027;29;20035;-73
2021/04/28 10:37:19;;;;;;;21.40;18.95;;;;;;;;;;4823908;29;20042;-74
2021/04/28 10:39:46;;;;;;;23.88;19.30;;;;;;;;;;4819417;29;20406;-73
2021/04/28 10:42:25;;;;;;;19.13;16.95;;;;;;;;;;4824902;29;20030;-73
2021/04/28 10:44:51;;;;;;;20.67;17.88;;;;;;;;;;4824381;29;20034;-72
2021/04/28 10:47:20;;;;;;;19.55;17.52;;;;;;;;;;4824878;29;20035;-73
2021/04/28 10:50:04;;;;;;;24.83;19.02;;;;;;;;;;4826534;29;20033;-73
2021/04/28 10:52:29;;;;;;;;;;;;;;;;;;4823783;29;20071;-74
2021/04/28 10:54:58;;;;;;;39.22;17.95;;;;;;;;;;4822415;29;19916;-73
2021/04/28 10:57:33;;;;;;;19.83;17.73;;;;;;;;;;4824036;29;20152;-74
2021/04/28 11:00:00;;;;;;;27.33;19.02;;;;;;;;;;4826642;29;20036;-74
2021/04/28 11:02:30;;;;;;;21.73;18.75;;;;;;;;;;4814213;29;20400;-75
2021/04/28 11:05:04;;;;;;;20.42;18.27;;;;;;;;;;4824332;29;20125;-73
2021/04/28 11:07:59;;;;;;;20.42;18.23;;;;;;;;;;4827346;29;20481;-74
2021/04/28 11:10:25;;;;;;;20.92;18.73;;;;;;;;;;4734965;30;20053;-75
2021/04/28 11:13:10;;;;;;;22.27;19.35;;;;;;;;;;4735241;30;20451;-72
2021/04/28 11:15:55;;;;;;;20.42;18.23;;;;;;;;;;4731491;30;20491;-72
2021/04/28 11:18:27;;;;;;;21.42;19.20;;;;;;;;;;4729685;30;20776;-73
2021/04/28 11:21:12;;;;;;;27.13;19.67;;;;;;;;;;4732054;30;20048;-74
2021/04/28 11:23:59;;;;;;;22.42;18.42;;;;;;;;;;4731943;30;20036;-75
2021/04/28 11:26:25;;;;;;;20.65;18.05;;;;;;;;;;4717287;30;20528;-75
2021/04/28 11:28:56;;;;;;;25.10;18.05;;;;;;;;;;4739730;30;20153;-74
2021/04/28 11:31:23;;;;;;;21.08;18.00;;;;;;;;;;4731267;30;20071;-73
2021/04/28 11:33:49;;;;;;;20.67;18.48;;;;;;;;;;4728144;30;20127;-73
2021/04/28 11:36:20;;;;;;;26.35;18.05;;;;;;;;;;4731695;30;20051;-73
2021/04/28 11:38:47;;;;;;;22.33;17.90;;;;;;;;;;4721929;30;20463;-72
2021/04/28 11:41:14;;;;;;;18.65;16.65;;;;;;;;;;4731106;30;20045;-71
2021/04/28 11:43:46;;;;;;;23.23;18.08;;;;;;;;;;4734489;30;20095;-75
2021/04/28 11:46:18;;;;;;;21.38;17.17;;;;;;;;;;4749659;29;20320;-72
2021/04/28 11:48:45;;;;;;;18.90;16.80;;;;;;;;;;4822071;29;20030;-74
2021/04/28 11:51:12;;;;;;;27.98;17.58;;;;;;;;;;4821720;29;20109;-73
2021/04/28 11:53:47;;;;;;;21.33;17.23;;;;;;;;;;4831078;29;20129;-76
2021/04/28 11:56:26;;;;;;;22.98;18.25;;;;;;;;;;4834183;29;20117;-74
2021/04/28 11:58:52;;;;;;;18.58;16.25;;;;;;;;;;4831605;29;20023;-75
2021/04/28 12:01:18;;;;;;;21.73;18.17;;;;;;;;;;4838640;29;20122;-75
2021/04/28 12:03:53;;;;;;;21.77;16.63;;;;;;;;;;4829832;29;20045;-71
2021/04/28 12:06:28;;;;;;;19.95;17.85;;;;;;;;;;4834008;29;21087;-76
2021/04/28 12:09:13;;;;;;;18.70;16.77;;;;;;;;;;4827666;29;20473;-73
2021/04/28 12:11:40;;;;;;;23.95;17.13;;;;;;;;;;4825023;29;20031;-73
2021/04/28 12:14:06;;;;;;;20.33;18.23;;;;;;;;;;4825837;29;20026;-72
2021/04/28 12:16:34;;;;;;;24.23;17.42;;;;;;;;;;4822826;29;20095;-71
2021/04/28 12:19:11;;;;;;;21.60;19.30;;;;;;;;;;4821646;29;20063;-71
2021/04/28 12:21:37;;;;;;;21.73;18.55;;;;;;;;;;4822624;29;20035;-72
2021/04/28 12:24:04;;;;;;;21.40;18.80;;;;;;;;;;4824865;29;20458;-71
2021/04/28 12:26:30;;;;;;;24.52;19.85;;;;;;;;;;4826626;29;20033;-73
2021/04/28 12:28:56;;;;;;;22.02;19.10;;;;;;;;;;4825824;29;20050;-71
2021/04/28 12:31:41;;;;;;;30.27;20.55;;;;;;;;;;4826640;29;20034;-71
2021/04/28 12:34:07;;;;;;;20.38;18.10;;;;;;;;;;4818810;29;20119;-75
2021/04/28 12:36:33;;;;;;;21.30;18.15;;;;;;;;;;4828864;29;20026;-72
2021/04/28 12:38:59;;;;;;;20.73;18.45;;;;;;;;;;4823665;29;20489;-72
2021/04/28 12:41:25;;;;;;;22.30;19.65;;;;;;;;;;4824435;29;20512;-72
2021/04/28 12:43:51;;;;;;;21.20;17.85;;;;;;;;;;4814416;29;20231;-70
2021/04/28 12:46:19;;;;;;;25.70;18.45;;;;;;;;;;4814397;29;20134;-73
2021/04/28 12:49:01;;;;;;;19.70;17.52;;;;;;;;;;4814255;29;20039;-71
2021/04/28 12:51:27;;;;;;;18.40;16.30;;;;;;;;;;4818318;29;20042;-71
2021/04/28 12:53:54;;;;;;;19.63;16.52;;;;;;;;;;4821236;29;20034;-72
2021/04/28 12:56:20;;;;;;;19.73;15.75;;;;;;;;;;4808855;29;20162;-72
2021/04/28 12:58:50;;;;;;;21.15;16.33;;;;;;;;;;4813536;29;20030;-72
2021/04/28 13:01:22;;;;;;;16.38;14.63;;;;;;;;;;4818644;29;20042;-71
2021/04/28 13:03:49;;;;;;;15.40;13.35;;;;;;;;;;4816662;29;20080;-74
2021/04/28 13:06:24;;;;;;;19.17;13.82;;;;;;;;;;4813179;29;20047;-72
2021/04/28 13:08:51;;;;;;;16.60;13.35;;;;;;;;;;4817533;29;20038;-71
2021/04/28 13:11:19;;;;;;;14.38;12.95;;;;;;;;;;4813046;29;20033;-71
2021/04/28 13:13:48;;;;;;;15.20;13.15;;;;;;;;;;4814239;29;20022;-72
2021/04/28 13:16:30;;;;;;;16.58;12.48;;;;;;;;;;4819786;29;20080;-71
2021/04/28 13:18:57;;;;;;;15.95;11.73;;;;;;;;;;4829119;29;20091;-77
2021/04/28 13:21:29;;;;;;;16.77;11.75;;;;;;;;;;4832582;29;20022;-76
2021/04/28 13:24:03;;;;;;;12.93;11.50;;;;;;;;;;4823905;29;20158;-75
2021/04/28 13:26:30;;;;;;;12.88;10.77;;;;;;;;;;4830303;29;20042;-78
2021/04/28 13:28:57;;;;;;;17.73;11.02;;;;;;;;;;4824845;29;20038;-75
2021/04/28 13:31:31;;;;;;;15.00;11.05;;;;;;;;;;4814279;29;20030;-71
2021/04/28 13:33:58;;;;;;;13.02;10.50;;;;;;;;;;4803121;29;20114;-72
2021/04/28 13:36:28;;;;;;;13.85;10.85;;;;;;;;;;4828194;29;20011;-72
2021/04/28 13:38:56;;;;;;;12.52;10.85;;;;;;;;;;4835497;29;20054;-77
2021/04/28 13:41:22;;;;;;;13.15;11.05;;;;;;;;;;4823332;29;20047;-77
2021/04/28 13:43:49;;;;;;;14.45;10.52;;;;;;;;;;4818946;29;20039;-75
2021/04/28 13:46:15;;;;;;;13.68;10.68;;;;;;;;;;4823414;29;20179;-77
2021/04/28 13:48:41;;;;;;;16.75;9.27;;;;;;;;;;4812900;29;20030;-70
2021/04/28 13:51:09;;;;;;;16.38;9.55;;;;;;;;;;4814736;29;20031;-72
2021/04/28 13:53:35;;;;;;;13.73;9.30;;;;;;;;;;4811126;29;20057;-71
2021/04/28 13:56:01;;;;;;;10.70;8.85;;;;;;;;;;4803651;29;20030;-70
2021/04/28 13:58:27;;;;;;;11.88;8.60;;;;;;;;;;4811649;29;20038;-72
2021/04/28 14:00:53;;;;;;;10.20;8.20;;;;;;;;;;4817832;29;20485;-72
2021/04/28 14:03:21;;;;;;;11.38;8.70;;;;;;;;;;4810727;29;20037;-71
2021/04/28 14:05:48;;;;;;;11.57;8.90;;;;;;;;;;4818738;29;20082;-72
2021/04/28 14:08:14;;;;;;;11.43;9.05;;;;;;;;;;4822371;29;20508;-71
2021/04/28 14:10:40;;;;;;;11.57;8.18;;;;;;;;;;4807036;29;20042;-72
2021/04/28 14:13:06;;;;;;;11.05;8.45;;;;;;;;;;4824312;29;20119;-71
2021/04/28 14:15:32;;;;;;;11.52;8.68;;;;;;;;;;4813545;29;20037;-72
2021/04/28 14:17:58;;;;;;;13.32;9.27;;;;;;;;;;4839212;29;20018;-73
2021/04/28 14:20:25;;;;;;;16.23;11.18;;;;;;;;;;4822236;29;20031;-74
2021/04/28 14:22:51;;;;;;;12.43;10.38;;;;;;;;;;4821302;29;20046;-76
2021/04/28 14:25:17;;;;;;;12.35;10.60;;;;;;;;;;4834686;29;20512;-72